Auriesville, New York
Current Conditions -  °F | °C
As of 3:15 AM on Monday 26 Jan 2015 (Local Time) from KNY0 Reporting Station
Clear Clear  
Wind Chill: -16°   Ceiling: Unl
Heat Index: -16°   Visibility: 10mi
Dew Point: -21°   Wind: 3mph
Humidity: 64%   Direction: 70°ENE
Pressure: 30.04"   Gusts: NA
Location:  42.93°N, 74.32°W
Report Text: KNY0 260815Z AUTO 07003KT 10SM CLR M16/M21 A3004 RMK AO2 T11571212
Loading
Personal Weather Stations






























Interactive Weather Map New forecast layout! Learn more

10-Day Weather Forecast

Advertisements
Track Severe Weather on mobile